Terminal Aerodrome Forecast
Issued by NWS Omaha/Valley, NE

Home | Current Version | Previous Version | Text Only | Print | Product List | Glossary On
Versions: 1 2 3 4 5 6 7 8 9 10 11 12 13 14 15 16 17 18 19 20 21 22 23 24 25 26 27 28 29 30 31 32 33 34 35 36 37 38 39 40 41 42 43 44 45 46 47
000
FTUS43 KOAX 220211 AAA
TAFOMA
TAF AMD
KOMA 220211Z 2202/2224 16014KT 4SM -DZ BR OVC004
     FM220800 16014KT 4SM BR OVC004
     FM221300 15012KT 4SM -RA BR OVC006
     FM222000 34008KT 5SM BR OVC006=

USA.gov is the U.S. government's official web portal to all federal, state and local government web resources and services.